Time;durP1;ratioP1;P1;durP2;ratioP2;P2;SDS_P1;SDS_P2;PMS_P1;PMS_P2;Temp;Humidity;BMP_temperature;BMP_pressure;BME280_temperature;BME280_humidity;BME280_pressure;Samples;Min_cycle;Max_cycle;Signal;HPM_P1;HPM_P2
2021/05/22 00:01:06;;;;;;;2.15;2.00;;;;;;;8.72;100.00;95773.69;5031030;28;20499;-53
2021/05/22 00:03:34;;;;;;;2.95;2.00;;;;;;;8.80;100.00;95789.53;5028715;28;20080;-55
2021/05/22 00:06:03;;;;;;;1.98;1.88;;;;;;;8.69;100.00;95779.25;5033218;28;20092;-56
2021/05/22 00:08:32;;;;;;;2.20;2.00;;;;;;;8.71;100.00;95772.88;5028042;28;20056;-55
2021/05/22 00:11:00;;;;;;;2.60;2.42;;;;;;;8.79;100.00;95788.69;5032385;28;20118;-55
2021/05/22 00:13:30;;;;;;;2.35;2.15;;;;;;;8.75;100.00;95811.00;5030045;28;20073;-58
2021/05/22 00:15:58;;;;;;;2.88;2.17;;;;;;;8.70;100.00;95807.16;5032059;28;20170;-49
2021/05/22 00:18:26;;;;;;;2.85;1.80;;;;;;;8.59;100.00;95795.06;5029243;28;20085;-53
2021/05/22 00:20:57;;;;;;;2.03;1.90;;;;;;;8.63;100.00;95801.69;5034228;28;20080;-56
2021/05/22 00:23:26;;;;;;;1.90;1.80;;;;;;;8.69;100.00;95808.97;5024011;28;20057;-53
2021/05/22 00:25:55;;;;;;;2.25;1.90;;;;;;;8.74;100.00;95805.88;5034720;28;20080;-53
2021/05/22 00:28:23;;;;;;;2.47;1.90;;;;;;;8.66;100.00;95811.91;5027628;28;20068;-54
2021/05/22 00:30:53;;;;;;;2.03;1.83;;;;;;;8.64;100.00;95815.66;5030478;28;20041;-55
2021/05/22 00:33:21;;;;;;;1.70;1.60;;;;;;;8.60;100.00;95816.91;5031236;28;20135;-56
2021/05/22 00:35:50;;;;;;;2.30;2.10;;;;;;;8.56;100.00;95808.50;5028346;28;20068;-57
2021/05/22 00:38:20;;;;;;;5.20;1.95;;;;;;;8.64;100.00;95813.03;5025059;28;20508;-51
2021/05/22 00:40:49;;;;;;;2.42;2.22;;;;;;;8.62;100.00;95810.53;5030053;28;20399;-53
2021/05/22 00:43:18;;;;;;;2.03;1.88;;;;;;;8.51;100.00;95792.38;5022791;28;20145;-53
2021/05/22 00:45:47;;;;;;;2.00;1.90;;;;;;;8.54;100.00;95792.06;5025798;28;20107;-46
2021/05/22 00:48:19;;;;;;;1.92;1.83;;;;;;;8.50;100.00;95788.91;5034193;28;20029;-48
2021/05/22 00:50:50;;;;;;;1.70;1.60;;;;;;;8.52;100.00;95784.31;5026696;28;20122;-48
2021/05/22 00:53:19;;;;;;;1.80;1.70;;;;;;;8.58;100.00;95782.91;5024362;28;20037;-50
2021/05/22 00:55:48;;;;;;;4.22;2.05;;;;;;;8.47;100.00;95781.34;5026948;28;20037;-48
2021/05/22 00:58:17;;;;;;;1.88;1.70;;;;;;;8.54;100.00;95792.91;5025168;28;20135;-54
2021/05/22 01:00:47;;;;;;;1.90;1.80;;;;;;;8.40;100.00;95784.72;5026541;28;20084;-52
2021/05/22 01:03:18;;;;;;;2.00;1.90;;;;;;;8.48;100.00;95804.00;5031655;28;20037;-53
2021/05/22 01:05:48;;;;;;;2.35;1.90;;;;;;;8.54;100.00;95792.91;5021552;28;20083;-52
2021/05/22 01:08:34;;;;;;;2.20;2.00;;;;;;;8.53;100.00;95796.50;5033076;28;20079;-49
2021/05/22 01:11:07;;;;;;;2.53;1.70;;;;;;;8.52;100.00;95789.56;5028440;28;20064;-51
2021/05/22 01:13:38;;;;;;;2.67;1.92;;;;;;;8.51;100.00;95787.94;5026031;28;20041;-49
2021/05/22 01:16:07;;;;;;;2.22;2.03;;;;;;;8.33;100.00;95797.56;5026958;28;20042;-53
2021/05/22 01:18:38;;;;;;;2.17;2.08;;;;;;;8.46;100.00;95789.34;5028843;28;20549;-50
2021/05/22 01:21:07;;;;;;;2.28;2.15;;;;;;;8.60;100.00;95753.84;5018026;28;20554;-50
2021/05/22 01:23:38;;;;;;;2.58;1.90;;;;;;;8.55;100.00;95725.41;5031295;28;20063;-50
2021/05/22 01:26:08;;;;;;;1.60;1.50;;;;;;;8.35;100.00;95727.31;5023668;28;20044;-49
2021/05/22 01:28:36;;;;;;;2.27;2.07;;;;;;;8.28;100.00;95752.50;5027959;28;20057;-51
2021/05/22 01:31:07;;;;;;;2.20;1.83;;;;;;;8.33;100.00;95779.19;5027955;28;20036;-52
2021/05/22 01:33:37;;;;;;;4.00;1.63;;;;;;;8.32;100.00;95783.59;5029862;28;20444;-54
2021/05/22 01:36:06;;;;;;;1.73;1.63;;;;;;;8.28;100.00;95770.91;5022674;28;20076;-51
2021/05/22 01:38:35;;;;;;;1.80;1.70;;;;;;;8.34;100.00;95775.56;5028402;28;20076;-51
2021/05/22 01:41:03;;;;;;;2.15;2.00;;;;;;;8.32;100.00;95783.59;5025931;28;20045;-50
2021/05/22 01:43:32;;;;;;;1.98;1.88;;;;;;;8.24;100.00;95783.50;5026719;28;20069;-54
2021/05/22 01:46:00;;;;;;;2.42;1.77;;;;;;;8.22;100.00;95779.34;5029453;28;20080;-55
2021/05/22 01:48:30;;;;;;;2.80;1.92;;;;;;;8.31;100.00;95781.13;5028843;28;20092;-52
2021/05/22 01:51:00;;;;;;;2.25;2.05;;;;;;;8.20;100.00;95774.28;5026711;28;20315;-53
2021/05/22 01:53:29;;;;;;;1.98;1.88;;;;;;;8.34;100.00;95749.31;5027561;28;20555;-50
2021/05/22 01:55:58;;;;;;;1.98;1.88;;;;;;;8.25;100.00;95743.13;5023023;28;20088;-53
2021/05/22 01:58:27;;;;;;;1.98;1.88;;;;;;;8.32;100.00;95752.06;5028743;28;20068;-51
2021/05/22 02:00:57;;;;;;;1.90;1.80;;;;;;;8.28;100.00;95765.66;5025638;28;20516;-54
2021/05/22 02:03:30;;;;;;;2.22;2.05;;;;;;;8.37;100.00;95779.72;5028970;28;20072;-50
2021/05/22 02:06:01;;;;;;;2.45;2.25;;;;;;;8.41;100.00;95778.47;5030165;28;20057;-50
2021/05/22 02:08:31;;;;;;;2.22;1.70;;;;;;;8.38;100.00;95784.00;5029088;28;20076;-51
2021/05/22 02:11:00;;;;;;;1.95;1.85;;;;;;;8.29;100.00;95794.41;5034923;28;20072;-52
2021/05/22 02:13:28;;;;;;;2.55;2.00;;;;;;;8.32;100.00;95791.47;5032918;28;20057;-54
2021/05/22 02:16:00;;;;;;;2.20;2.10;;;;;;;8.41;100.00;95787.16;5030673;28;20088;-56
2021/05/22 02:18:31;;;;;;;1.98;1.80;;;;;;;8.28;100.00;95784.84;5034501;28;20072;-56
2021/05/22 02:21:02;;;;;;;1.52;1.50;;;;;;;8.21;100.00;95775.09;5032409;28;20095;-54
2021/05/22 02:23:33;;;;;;;2.55;1.88;;;;;;;8.14;100.00;95776.66;5024209;28;20065;-52
2021/05/22 02:26:02;;;;;;;1.90;1.70;;;;;;;8.32;100.00;95782.75;5036980;28;20042;-50
2021/05/22 02:28:32;;;;;;;2.10;2.00;;;;;;;8.24;100.00;95796.63;5031119;28;20110;-53
2021/05/22 02:31:02;;;;;;;2.38;2.25;;;;;;;8.33;100.00;95792.31;5029898;28;20072;-54
2021/05/22 02:33:31;;;;;;;2.00;1.90;;;;;;;8.39;100.00;95802.25;5027747;28;20077;-55
2021/05/22 02:36:00;;;;;;;2.40;2.20;;;;;;;8.37;100.00;95809.44;5030589;28;20069;-56
2021/05/22 02:38:31;;;;;;;1.90;1.80;;;;;;;8.21;100.00;95806.59;5028079;28;20071;-56
2021/05/22 02:41:01;;;;;;;2.85;2.00;;;;;;;8.15;100.00;95813.25;5032387;28;20085;-51
2021/05/22 02:43:31;;;;;;;2.25;1.80;;;;;;;8.22;100.00;95803.81;5030822;28;20049;-56
2021/05/22 02:46:01;;;;;;;2.05;1.70;;;;;;;8.24;100.00;95783.50;5026663;28;20080;-56
2021/05/22 02:48:32;;;;;;;1.77;1.67;;;;;;;8.36;100.00;95762.28;5028208;28;20531;-51
2021/05/22 02:51:01;;;;;;;1.98;1.88;;;;;;;8.23;100.00;95768.72;5028665;28;20076;-54
2021/05/22 02:53:30;;;;;;;2.00;1.90;;;;;;;8.26;100.00;95770.25;5025570;28;20434;-55
2021/05/22 02:55:58;;;;;;;1.98;1.70;;;;;;;8.09;100.00;95787.59;5039134;28;20069;-49
2021/05/22 02:58:28;;;;;;;2.08;1.95;;;;;;;8.06;100.00;95804.47;5024362;28;20056;-53
2021/05/22 03:00:58;;;;;;;1.70;1.60;;;;;;;8.28;100.00;95791.91;5040325;22;20065;-65
2021/05/22 03:03:28;;;;;;;1.77;1.67;;;;;;;8.04;100.00;95811.66;5026323;28;20515;-64
2021/05/22 03:05:57;;;;;;;1.77;1.67;;;;;;;8.07;100.00;95810.53;5024114;28;20650;-66
2021/05/22 03:08:25;;;;;;;1.90;1.80;;;;;;;8.02;100.00;95797.03;5026251;28;20077;-66
2021/05/22 03:10:55;;;;;;;3.40;1.83;;;;;;;8.09;100.00;95796.31;5022435;28;20073;-65
2021/05/22 03:13:24;;;;;;;1.70;1.60;;;;;;;8.08;100.00;95801.69;5002764;28;20062;-66
2021/05/22 03:15:52;;;;;;;1.67;1.58;;;;;;;8.19;100.00;95806.75;5003422;28;20638;-66
2021/05/22 03:18:20;;;;;;;2.72;1.77;;;;;;;8.16;100.00;95793.91;5007662;28;20077;-66
2021/05/22 03:20:49;;;;;;;1.83;1.70;;;;;;;8.08;100.00;95806.94;5001858;28;20455;-65
2021/05/22 03:23:17;;;;;;;1.83;1.73;;;;;;;8.21;100.00;95803.97;5004407;28;20135;-65
2021/05/22 03:25:46;;;;;;;1.77;1.67;;;;;;;8.09;100.00;95783.16;5005909;28;20387;-66
2021/05/22 03:28:15;;;;;;;2.20;2.10;;;;;;;8.19;100.00;95783.13;5002789;28;20069;-66
2021/05/22 03:30:43;;;;;;;1.70;1.60;;;;;;;8.09;100.00;95798.09;5005545;28;20084;-65
2021/05/22 03:33:12;;;;;;;2.03;1.92;;;;;;;8.07;100.00;95795.59;5010623;28;20078;-65
2021/05/22 03:35:41;;;;;;;1.75;1.65;;;;;;;8.20;100.00;95795.28;5003810;28;20692;-66
2021/05/22 03:38:11;;;;;;;1.92;1.60;;;;;;;8.26;100.00;95789.44;5007089;28;20062;-66
2021/05/22 03:40:39;;;;;;;1.95;1.80;;;;;;;7.98;100.00;95788.63;5003618;28;20491;-65
2021/05/22 03:43:08;;;;;;;1.80;1.70;;;;;;;8.14;100.00;95797.66;5002910;28;20119;-65
2021/05/22 03:45:37;;;;;;;1.73;1.63;;;;;;;8.03;100.00;95793.44;5005047;28;20046;-66
2021/05/22 03:48:06;;;;;;;1.80;1.65;;;;;;;8.21;100.00;95796.91;5004828;28;21323;-66
2021/05/22 03:50:35;;;;;;;1.90;1.80;;;;;;;8.20;100.00;95779.53;4999822;28;20042;-65
2021/05/22 03:53:03;;;;;;;1.75;1.65;;;;;;;8.22;100.00;95763.59;5007978;28;20553;-67
2021/05/22 03:55:33;;;;;;;1.90;1.80;;;;;;;8.28;100.00;95774.34;5000886;28;20037;-65
2021/05/22 03:58:02;;;;;;;1.65;1.55;;;;;;;8.09;100.00;95775.28;5004524;28;20084;-66
2021/05/22 04:00:31;;;;;;;1.80;1.70;;;;;;;8.12;100.00;95784.69;5005064;28;20061;-66
2021/05/22 04:03:00;;;;;;;1.95;1.83;;;;;;;8.16;100.00;95783.41;5002452;28;20076;-66
2021/05/22 04:05:28;;;;;;;2.15;1.83;;;;;;;8.26;100.00;95773.69;5001411;28;20080;-64
2021/05/22 04:07:57;;;;;;;1.95;1.83;;;;;;;8.19;100.00;95779.66;5003720;28;20653;-67
2021/05/22 04:10:26;;;;;;;1.60;1.50;;;;;;;8.22;100.00;95772.31;5005477;28;20065;-64
2021/05/22 04:12:55;;;;;;;1.90;1.80;;;;;;;8.37;100.00;95775.28;5003687;28;20057;-65
2021/05/22 04:15:23;;;;;;;1.70;1.60;;;;;;;8.37;100.00;95777.09;5006405;28;20093;-66
2021/05/22 04:18:09;;;;;;;1.88;1.77;;;;;;;8.47;100.00;95786.59;5000395;28;20686;-66
2021/05/22 04:20:38;;;;;;;1.83;1.73;;;;;;;8.50;100.00;95790.72;5005214;28;20069;-66
2021/05/22 04:23:06;;;;;;;1.83;1.73;;;;;;;8.41;100.00;95794.22;5003499;28;20070;-65
2021/05/22 04:25:35;;;;;;;2.15;2.00;;;;;;;8.61;100.00;95797.56;4999627;28;20066;-66
2021/05/22 04:28:05;;;;;;;2.10;2.00;;;;;;;8.44;100.00;95807.91;5001991;28;20084;-64
2021/05/22 04:30:33;;;;;;;2.45;2.25;;;;;;;8.59;100.00;95815.28;5007469;28;20073;-66
2021/05/22 04:33:03;;;;;;;2.28;2.08;;;;;;;8.62;100.00;95801.84;5001785;28;20073;-66
2021/05/22 04:35:31;;;;;;;1.77;1.67;;;;;;;8.63;100.00;95793.78;5004507;28;20085;-64
2021/05/22 04:38:00;;;;;;;2.50;1.77;;;;;;;8.78;100.00;95794.94;5001126;28;20538;-65
2021/05/22 04:40:29;;;;;;;2.20;2.10;;;;;;;8.87;100.00;95802.91;5003737;28;20066;-66
2021/05/22 04:42:59;;;;;;;2.30;2.10;;;;;;;8.91;100.00;95814.75;5001441;28;20054;-66
2021/05/22 04:45:28;;;;;;;1.70;1.60;;;;;;;8.62;100.00;95834.19;5006184;28;20038;-66
2021/05/22 04:47:57;;;;;;;2.05;1.92;;;;;;;8.76;100.00;95825.81;5003541;28;20153;-66
2021/05/22 04:50:27;;;;;;;1.90;1.80;;;;;;;8.72;100.00;95829.72;5002294;28;20069;-66
2021/05/22 04:52:55;;;;;;;1.90;1.80;;;;;;;8.69;100.00;95814.22;5003021;28;20076;-66
2021/05/22 04:55:24;;;;;;;1.60;1.50;;;;;;;8.69;100.00;95810.78;5001415;28;20058;-66
2021/05/22 04:57:54;;;;;;;1.90;1.60;;;;;;;8.65;100.00;95817.31;5002257;28;20121;-65
2021/05/22 05:00:22;;;;;;;2.30;2.10;;;;;;;8.85;100.00;95825.91;5007629;28;20169;-66
2021/05/22 05:02:54;;;;;;;3.05;1.60;;;;;;;8.95;100.00;95822.22;5005768;28;20053;-66
2021/05/22 05:05:24;;;;;;;2.95;1.70;;;;;;;8.95;100.00;95821.41;5001422;28;20061;-66
2021/05/22 05:07:52;;;;;;;1.80;1.70;;;;;;;8.97;100.00;95832.56;5005602;28;20074;-66
2021/05/22 05:10:21;;;;;;;2.17;1.60;;;;;;;9.00;100.00;95837.53;5001881;28;20062;-66
2021/05/22 05:12:49;;;;;;;2.15;1.95;;;;;;;9.19;100.00;95847.09;5004182;28;20089;-66
2021/05/22 05:15:18;;;;;;;1.75;1.52;;;;;;;9.17;100.00;95835.88;5001764;28;20057;-66
2021/05/22 05:17:46;;;;;;;2.05;1.95;;;;;;;9.10;100.00;95830.41;5002414;28;20515;-66
2021/05/22 05:20:16;;;;;;;2.13;1.80;;;;;;;9.22;100.00;95837.09;5000682;28;20072;-65
2021/05/22 05:22:50;;;;;;;1.80;1.70;;;;;;;9.21;100.00;95848.56;5025223;28;20099;-66
2021/05/22 05:25:18;;;;;;;1.80;1.70;;;;;;;9.18;100.00;95840.97;5002232;28;20111;-67
2021/05/22 05:27:47;;;;;;;1.60;1.50;;;;;;;9.21;100.00;95832.78;5002138;28;20082;-66
2021/05/22 05:30:16;;;;;;;1.98;1.75;;;;;;;9.48;100.00;95820.50;5005093;28;20077;-64
2021/05/22 05:32:45;;;;;;;1.80;1.70;;;;;;;9.54;100.00;95827.78;5004103;28;20060;-66
2021/05/22 05:35:14;;;;;;;1.95;1.85;;;;;;;9.40;100.00;95831.81;5000664;28;20590;-65
2021/05/22 05:37:43;;;;;;;1.80;1.70;;;;;;;9.55;100.00;95820.72;5003515;28;20074;-66
2021/05/22 05:40:12;;;;;;;1.98;1.88;;;;;;;9.63;100.00;95818.13;5006783;28;20092;-64
2021/05/22 05:42:41;;;;;;;2.13;1.60;;;;;;;9.73;100.00;95824.94;5008039;28;20524;-66
2021/05/22 05:45:10;;;;;;;1.60;1.50;;;;;;;9.94;100.00;95831.66;5012019;28;20083;-66
2021/05/22 05:47:38;;;;;;;1.65;1.50;;;;;;;10.07;100.00;95832.06;5008447;28;20524;-66
2021/05/22 05:50:12;;;;;;;2.25;1.60;;;;;;;10.14;100.00;95833.09;5004179;28;20100;-66
2021/05/22 05:52:41;;;;;;;1.85;1.75;;;;;;;9.87;100.00;95823.53;5012231;28;20065;-64
2021/05/22 05:55:12;;;;;;;1.75;1.65;;;;;;;9.85;100.00;95827.34;5007841;28;20053;-65
2021/05/22 05:57:41;;;;;;;2.15;2.05;;;;;;;10.02;100.00;95829.09;5009258;28;20475;-67
2021/05/22 06:00:10;;;;;;;2.00;1.90;;;;;;;10.05;100.00;95817.38;5009849;28;20528;-65
2021/05/22 06:02:39;;;;;;;1.93;1.83;;;;;;;9.89;100.00;95829.50;5010239;28;20523;-66
2021/05/22 06:05:09;;;;;;;1.88;1.77;;;;;;;10.18;100.00;95825.69;5009019;28;20077;-66
2021/05/22 06:07:39;;;;;;;1.95;1.85;;;;;;;10.46;100.00;95826.34;5008920;28;20041;-66
2021/05/22 06:10:09;;;;;;;1.95;1.85;;;;;;;10.48;100.00;95826.19;5005146;28;20084;-66
2021/05/22 06:12:40;;;;;;;1.85;1.73;;;;;;;10.66;100.00;95821.59;5031193;28;20070;-65
2021/05/22 06:15:21;;;;;;;2.17;1.50;;;;;;;10.49;100.00;95810.19;5008252;28;20042;-66
2021/05/22 06:17:52;;;;;;;5.78;2.03;;;;;;;10.65;100.00;95818.16;5004828;28;20049;-66
2021/05/22 06:20:21;;;;;;;1.60;1.50;;;;;;;10.74;100.00;95811.09;5007319;28;20525;-66
2021/05/22 06:23:07;;;;;;;1.90;1.80;;;;;;;10.60;100.00;95815.19;5007156;28;20565;-66
2021/05/22 06:25:36;;;;;;;4.65;1.70;;;;;;;10.76;100.00;95829.38;5008887;28;20085;-66
2021/05/22 06:28:06;;;;;;;1.42;1.33;;;;;;;10.90;100.00;95823.47;5007321;28;20072;-66
2021/05/22 06:30:35;;;;;;;1.88;1.70;;;;;;;11.23;100.00;95828.81;5012888;28;20544;-66
2021/05/22 06:33:04;;;;;;;2.42;1.60;;;;;;;11.10;100.00;95832.75;5003595;28;21443;-66
2021/05/22 06:35:32;;;;;;;2.25;1.90;;;;;;;11.07;100.00;95825.16;5009994;28;20143;-66
2021/05/22 06:38:18;;;;;;;1.73;1.63;;;;;;;10.63;100.00;95832.47;5005982;28;20448;-67
2021/05/22 06:40:47;;;;;;;8.77;1.88;;;;;;;10.93;100.00;95831.06;5008759;28;20073;-66
2021/05/22 06:43:16;;;;;;;1.80;1.58;;;;;;;11.14;100.00;95827.97;5006477;28;20061;-66
2021/05/22 06:45:47;;;;;;;1.67;1.58;;;;;;;11.04;100.00;95833.38;5010276;28;20089;-65
2021/05/22 06:48:16;;;;;;;2.40;1.60;;;;;;;11.72;100.00;95837.53;5009623;28;20082;-67
2021/05/22 06:50:44;;;;;;;1.75;1.65;;;;;;;11.99;100.00;95832.91;5007874;28;20061;-66
2021/05/22 06:53:12;;;;;;;1.75;1.63;;;;;;;12.10;100.00;95827.25;5004053;28;20069;-66
2021/05/22 06:55:42;;;;;;;2.50;1.77;;;;;;;12.28;100.00;95827.84;5006183;28;20038;-68
2021/05/22 06:58:29;;;;;;;2.38;1.63;;;;;;;12.50;100.00;95828.13;5005394;28;20084;-66
2021/05/22 07:00:57;;;;;;;2.65;1.67;;;;;;;12.31;100.00;95827.50;5005489;28;22894;-65
2021/05/22 07:03:26;;;;;;;4.15;1.30;;;;;;;12.50;100.00;95831.59;5005665;28;20594;-65
2021/05/22 07:05:57;;;;;;;2.67;1.45;;;;;;;13.04;100.00;95831.63;5003187;28;20073;-65
2021/05/22 07:08:25;;;;;;;3.35;1.35;;;;;;;12.75;100.00;95840.22;5003540;28;20062;-64
2021/05/22 07:10:55;;;;;;;4.05;1.75;;;;;;;12.34;100.00;95840.38;5003349;28;20393;-64
2021/05/22 07:13:24;;;;;;;4.30;1.63;;;;;;;12.57;100.00;95850.22;5004947;28;20074;-64
2021/05/22 07:15:54;;;;;;;4.03;1.80;;;;;;;12.86;100.00;95851.41;5000103;28;20093;-67
2021/05/22 07:18:23;;;;;;;;;;;;;;;12.49;100.00;95853.75;5007319;28;20078;-64
2021/05/22 07:20:51;;;;;;;4.45;1.95;;;;;;;13.24;100.00;95849.72;5007219;28;19992;-65
2021/05/22 07:23:19;;;;;;;4.10;1.88;;;;;;;12.59;100.00;95858.81;5002497;28;20065;-66
2021/05/22 07:25:49;;;;;;;4.10;1.67;;;;;;;12.45;100.00;95860.34;5002296;28;20096;-64
2021/05/22 07:28:17;;;;;;;4.05;1.60;;;;;;;12.73;100.00;95865.19;5005047;28;20554;-64
2021/05/22 07:30:46;;;;;;;4.03;1.80;;;;;;;12.74;100.00;95864.22;5002091;28;20520;-64
2021/05/22 07:33:17;;;;;;;4.57;1.88;;;;;;;13.21;100.00;95861.47;5008274;28;20477;-64
2021/05/22 07:35:45;;;;;;;;;;;;;;;12.94;100.00;95860.16;5001727;28;20083;-65
2021/05/22 07:38:14;;;;;;;6.38;1.80;;;;;;;13.07;100.00;95851.59;5004123;28;19952;-64
2021/05/22 07:40:42;;;;;;;4.68;1.90;;;;;;;12.95;100.00;95847.72;4999745;28;20069;-65
2021/05/22 07:43:10;;;;;;;5.53;2.00;;;;;;;13.17;100.00;95844.25;5007445;28;20065;-64
2021/05/22 07:45:38;;;;;;;3.03;1.50;;;;;;;13.77;100.00;95845.34;4999409;28;20550;-65
2021/05/22 07:48:07;;;;;;;6.45;1.90;;;;;;;13.97;100.00;95832.38;5004914;28;21345;-64
2021/05/22 07:50:36;;;;;;;3.58;1.48;;;;;;;13.32;100.00;95825.84;5019847;28;20065;-65
2021/05/22 07:53:05;;;;;;;3.03;1.40;;;;;;;13.20;100.00;95832.50;5003595;28;20062;-64
2021/05/22 07:55:33;;;;;;;4.45;1.70;;;;;;;13.13;100.00;95829.75;5000272;28;20072;-64
2021/05/22 07:58:01;;;;;;;3.13;1.63;;;;;;;13.31;100.00;95832.13;5004801;28;20070;-64
2021/05/22 08:00:30;;;;;;;5.95;1.85;;;;;;;13.30;100.00;95817.25;5003947;28;20046;-64
2021/05/22 08:02:58;;;;;;;6.07;2.20;;;;;;;13.89;100.00;95821.84;5005412;28;20065;-66
2021/05/22 08:05:27;;;;;;;4.40;1.93;;;;;;;13.54;100.00;95817.03;5001868;28;20112;-66
2021/05/22 08:07:56;;;;;;;5.40;1.95;;;;;;;13.69;100.00;95826.84;5006084;28;20092;-66
2021/05/22 08:10:25;;;;;;;5.03;1.70;;;;;;;13.46;100.00;95826.91;5001707;28;20069;-67
2021/05/22 08:12:53;;;;;;;3.55;1.50;;;;;;;13.41;100.00;95831.88;5023853;28;20096;-66
2021/05/22 08:15:22;;;;;;;4.45;1.60;;;;;;;13.47;100.00;95823.22;5005615;28;20470;-65
2021/05/22 08:17:51;;;;;;;2.70;1.60;;;;;;;13.18;100.00;95808.03;5005660;28;20081;-66
2021/05/22 08:20:19;;;;;;;1.98;1.63;;;;;;;13.31;100.00;95818.88;5004033;28;21631;-67
2021/05/22 08:22:48;;;;;;;4.70;1.80;;;;;;;13.22;100.00;95820.75;4999273;28;20065;-66
2021/05/22 08:25:17;;;;;;;2.47;1.40;;;;;;;13.54;100.00;95810.91;5002678;28;20336;-66
2021/05/22 08:27:45;;;;;;;3.67;1.60;;;;;;;13.46;100.00;95809.19;5002673;28;20077;-66
2021/05/22 08:30:14;;;;;;;3.97;1.55;;;;;;;13.43;100.00;95806.88;4999867;28;20084;-65
2021/05/22 08:32:42;;;;;;;3.45;1.70;;;;;;;13.90;100.00;95808.44;5002285;28;20073;-64
2021/05/22 08:35:11;;;;;;;3.85;1.50;;;;;;;13.65;98.41;95810.47;5004355;28;20066;-65
2021/05/22 08:37:40;;;;;;;2.90;1.58;;;;;;;13.82;97.96;95795.25;4998087;28;20065;-66
2021/05/22 08:40:11;;;;;;;5.60;1.63;;;;;;;14.09;100.00;95820.31;5001443;28;20065;-67
2021/05/22 08:42:41;;;;;;;3.85;1.40;;;;;;;13.47;98.47;95799.41;5000701;28;20486;-66
2021/05/22 08:45:11;;;;;;;2.38;1.70;;;;;;;13.44;100.00;95816.47;5008247;28;20068;-67
2021/05/22 08:47:40;;;;;;;2.55;1.60;;;;;;;13.61;100.00;95819.81;5002811;28;20037;-66
2021/05/22 08:50:11;;;;;;;2.90;1.60;;;;;;;13.65;100.00;95826.38;5004211;28;20068;-67
2021/05/22 08:52:39;;;;;;;3.47;2.08;;;;;;;14.05;99.19;95828.84;5002803;28;20069;-67
2021/05/22 08:55:09;;;;;;;3.10;1.50;;;;;;;14.27;100.00;95816.50;5003432;28;20057;-66
2021/05/22 08:57:37;;;;;;;3.67;1.23;;;;;;;13.97;100.00;95827.91;5005716;28;20082;-63
2021/05/22 09:00:11;;;;;;;3.30;1.25;;;;;;;13.38;100.00;95837.53;5004576;28;20065;-65
2021/05/22 09:02:39;;;;;;;2.67;1.17;;;;;;;13.53;100.00;95820.69;4999836;28;20062;-66
2021/05/22 09:05:20;;;;;;;2.72;1.30;;;;;;;13.72;100.00;95840.56;5002701;28;20065;-66
2021/05/22 09:07:52;;;;;;;1.90;1.48;;;;;;;13.77;100.00;95826.78;5002864;28;20050;-65
2021/05/22 09:10:21;;;;;;;;;;;;;;;14.39;100.00;95836.25;5001578;28;20088;-65
2021/05/22 09:12:52;;;;;;;3.00;1.30;;;;;;;14.60;100.00;95827.56;5001483;28;20417;-64
2021/05/22 09:15:23;;;;;;;1.83;1.30;;;;;;;14.31;88.71;95825.72;5005184;28;20469;-64
2021/05/22 09:17:52;;;;;;;;;;;;;;;14.66;97.25;95834.81;4998766;28;20104;-65
2021/05/22 09:20:24;;;;;;;2.50;1.50;;;;;;;14.46;100.00;95835.34;5005832;28;19945;-65
2021/05/22 09:22:56;;;;;;;4.55;1.80;;;;;;;14.45;86.86;95808.97;5000529;28;20077;-65
2021/05/22 09:25:24;;;;;;;7.10;1.58;;;;;;;14.79;92.94;95820.84;5000700;28;20074;-65
2021/05/22 09:27:54;;;;;;;3.85;1.65;;;;;;;14.79;100.00;95820.84;5005773;28;20088;-65
2021/05/22 09:30:25;;;;;;;2.47;1.27;;;;;;;14.63;95.12;95843.13;5004333;28;20500;-65
2021/05/22 09:32:53;;;;;;;;;;;;;;;14.17;90.31;95828.19;5002855;28;20061;-65
2021/05/22 09:35:24;;;;;;;1.63;1.25;;;;;;;14.38;84.29;95813.38;5003306;28;19968;-66
2021/05/22 09:37:53;;;;;;;6.75;1.33;;;;;;;14.77;96.50;95825.53;5003960;28;20070;-65
2021/05/22 09:40:24;;;;;;;3.05;1.33;;;;;;;14.55;92.11;95822.81;4998134;28;20093;-65
2021/05/22 09:42:53;;;;;;;3.88;1.60;;;;;;;15.04;98.46;95818.69;5003959;28;20066;-65
2021/05/22 09:45:24;;;;;;;3.05;1.42;;;;;;;14.54;97.88;95815.03;5003312;28;20081;-65
2021/05/22 09:47:53;;;;;;;3.72;1.40;;;;;;;14.68;100.00;95814.19;5005086;28;20034;-65
2021/05/22 09:50:29;;;;;;;1.38;1.17;;;;;;;14.62;100.00;95822.88;4998863;28;20077;-64
2021/05/22 09:52:57;;;;;;;5.80;1.45;;;;;;;14.89;100.00;95818.72;5002726;28;20062;-65
2021/05/22 09:55:26;;;;;;;5.55;1.67;;;;;;;14.70;84.38;95830.75;4999815;28;20479;-65
2021/05/22 09:58:12;;;;;;;2.65;1.30;;;;;;;14.77;100.00;95825.53;5003623;28;20477;-65
2021/05/22 10:00:41;;;;;;;1.38;1.25;;;;;;;15.30;100.00;95821.59;5000768;28;20104;-65
2021/05/22 10:03:22;;;;;;;3.15;1.58;;;;;;;15.14;90.44;95821.84;5009294;28;20546;-62
2021/05/22 10:05:51;;;;;;;1.42;1.33;;;;;;;14.72;87.52;95794.22;5002812;28;20069;-63
2021/05/22 10:08:20;;;;;;;1.75;1.42;;;;;;;14.96;94.62;95819.63;4999673;28;20061;-63
2021/05/22 10:10:50;;;;;;;3.88;1.30;;;;;;;15.20;99.76;95829.88;5001639;28;20069;-62
2021/05/22 10:13:21;;;;;;;3.55;1.60;;;;;;;14.69;80.70;95819.34;5003970;28;20448;-63
2021/05/22 10:15:54;;;;;;;1.52;1.23;;;;;;;14.82;87.34;95833.75;4995735;28;20061;-64
2021/05/22 10:18:24;;;;;;;2.53;1.35;;;;;;;14.75;86.55;95801.00;5007484;28;20077;-64
2021/05/22 10:20:53;;;;;;;3.95;1.60;;;;;;;15.20;90.56;95829.88;5000061;28;20471;-63
2021/05/22 10:23:22;;;;;;;2.08;1.48;;;;;;;15.09;98.80;95811.78;5000893;28;20112;-62
2021/05/22 10:25:51;;;;;;;2.95;1.48;;;;;;;14.71;84.15;95816.47;4998198;28;20077;-63
2021/05/22 10:28:19;;;;;;;2.50;1.52;;;;;;;14.84;83.93;95813.97;5005617;28;20054;-63
2021/05/22 10:30:48;;;;;;;6.05;1.70;;;;;;;15.34;80.47;95806.09;4998352;28;20210;-63
2021/05/22 10:33:18;;;;;;;2.85;1.33;;;;;;;15.21;92.16;95814.78;5010592;28;20081;-62
2021/05/22 10:35:49;;;;;;;3.42;1.52;;;;;;;15.67;89.76;95817.06;5003919;28;20065;-63
2021/05/22 10:38:38;;;;;;;1.70;1.45;;;;;;;15.14;85.13;95821.84;5006827;28;20074;-63
2021/05/22 10:41:10;;;;;;;2.55;1.35;;;;;;;15.20;79.64;95827.22;5004944;28;20057;-64
2021/05/22 10:43:40;;;;;;;2.55;1.27;;;;;;;14.89;84.95;95814.22;5004271;28;20092;-63
2021/05/22 10:46:09;;;;;;;3.13;1.58;;;;;;;15.44;82.99;95801.28;5004221;28;20084;-62
2021/05/22 10:48:50;;;;;;;1.40;1.10;;;;;;;15.42;90.52;95804.16;5009100;28;20042;-64
2021/05/22 10:51:22;;;;;;;2.85;1.60;;;;;;;15.48;82.79;95818.50;5004196;28;20096;-62
2021/05/22 10:53:55;;;;;;;2.28;1.20;;;;;;;15.72;85.97;95795.22;5004944;28;20034;-63
2021/05/22 10:56:23;;;;;;;2.00;1.30;;;;;;;15.87;83.37;95801.28;5004207;28;20061;-63
2021/05/22 10:59:19;;;;;;;1.73;1.23;;;;;;;15.62;77.52;95792.84;5003506;28;20037;-60
2021/05/22 11:01:48;;;;;;;4.00;1.52;;;;;;;15.70;89.58;95792.75;4970659;28;20628;-63
2021/05/22 11:04:41;;;;;;;2.65;1.40;;;;;;;15.78;89.41;95794.44;5002709;28;20034;-63
2021/05/22 11:07:20;;;;;;;2.80;1.40;;;;;;;15.99;82.58;95781.09;5003949;28;20068;-63
2021/05/22 11:09:56;;;;;;;2.50;1.40;;;;;;;15.97;77.05;95800.94;5005431;28;20108;-62
2021/05/22 11:12:49;;;;;;;3.25;1.30;;;;;;;15.66;65.98;95787.00;5003080;28;20046;-63
2021/05/22 11:15:50;;;;;;;5.78;1.48;;;;;;;16.18;78.85;95787.56;5007436;28;20123;-63
2021/05/22 11:18:24;;;;;;;1.98;1.20;;;;;;;16.00;80.70;95797.88;5001802;28;20050;-63
2021/05/22 11:21:18;;;;;;;2.83;1.45;;;;;;;16.23;76.87;95793.09;5025668;28;20110;-64
2021/05/22 11:24:11;;;;;;;1.42;1.30;;;;;;;16.38;83.93;95799.13;5000706;28;20069;-63
2021/05/22 11:27:00;;;;;;;1.67;1.10;;;;;;;16.47;89.02;95796.28;5003179;28;20443;-63
2021/05/22 11:29:58;;;;;;;2.65;1.30;;;;;;;16.00;89.24;95781.91;5000729;28;20077;-65
2021/05/22 11:32:46;;;;;;;1.40;1.30;;;;;;;16.04;88.16;95799.16;5003692;28;20046;-64
2021/05/22 11:35:40;;;;;;;3.95;1.50;;;;;;;16.32;80.15;95801.75;5003737;28;20062;-62
2021/05/22 11:38:37;;;;;;;2.35;1.30;;;;;;;16.16;73.09;95788.75;5003883;28;20439;-62
2021/05/22 11:41:10;;;;;;;2.38;1.20;;;;;;;16.25;83.68;95785.75;5003458;28;20038;-64
2021/05/22 11:43:44;;;;;;;1.23;1.10;;;;;;;16.01;76.77;95802.19;5003294;28;20142;-64
2021/05/22 11:46:17;;;;;;;1.80;1.48;;;;;;;16.17;82.44;95790.41;5005799;28;20068;-63
2021/05/22 11:48:50;;;;;;;1.75;1.20;;;;;;;16.72;81.71;95799.25;5000746;28;20061;-62